sensor_id;sensor_type;location;lat;lon;timestamp;pressure;altitude;pressure_sealevel;temperature;humidity
56811;BME280;42691;47.234;27.494;2022-08-19T00:01:18;99274.25;;;23.57;100.00
56811;BME280;42691;47.234;27.494;2022-08-19T00:03:43;99273.56;;;23.31;100.00
56811;BME280;42691;47.234;27.494;2022-08-19T00:06:09;99269.41;;;23.28;100.00
56811;BME280;42691;47.234;27.494;2022-08-19T00:08:35;99272.25;;;23.43;100.00
56811;BME280;42691;47.234;27.494;2022-08-19T00:11:00;99274.56;;;23.54;100.00
56811;BME280;42691;47.234;27.494;2022-08-19T00:13:26;99274.75;;;23.45;100.00
56811;BME280;42691;47.234;27.494;2022-08-19T00:15:54;99270.59;;;23.42;100.00
56811;BME280;42691;47.234;27.494;2022-08-19T00:18:19;99270.91;;;23.47;100.00
56811;BME280;42691;47.234;27.494;2022-08-19T00:20:45;99268.94;;;23.65;100.00
56811;BME280;42691;47.234;27.494;2022-08-19T00:23:10;99272.25;;;23.67;100.00
56811;BME280;42691;47.234;27.494;2022-08-19T00:25:36;99273.59;;;23.63;100.00
56811;BME280;42691;47.234;27.494;2022-08-19T00:28:02;99264.94;;;23.45;100.00
56811;BME280;42691;47.234;27.494;2022-08-19T00:30:28;99265.59;;;23.39;100.00
56811;BME280;42691;47.234;27.494;2022-08-19T00:32:53;99273.91;;;23.44;100.00
56811;BME280;42691;47.234;27.494;2022-08-19T00:35:22;99264.25;;;23.35;100.00
56811;BME280;42691;47.234;27.494;2022-08-19T00:37:49;99271.59;;;23.57;100.00
56811;BME280;42691;47.234;27.494;2022-08-19T00:40:15;99270.59;;;23.42;100.00
56811;BME280;42691;47.234;27.494;2022-08-19T00:42:41;99273.09;;;23.44;100.00
56811;BME280;42691;47.234;27.494;2022-08-19T00:45:12;99272.25;;;23.43;100.00
56811;BME280;42691;47.234;27.494;2022-08-19T00:47:38;99273.25;;;23.42;100.00
56811;BME280;42691;47.234;27.494;2022-08-19T00:50:05;99276.88;;;23.33;100.00
56811;BME280;42691;47.234;27.494;2022-08-19T00:52:35;99270.41;;;23.19;100.00
56811;BME280;42691;47.234;27.494;2022-08-19T00:55:06;99272.22;;;23.35;100.00
56811;BME280;42691;47.234;27.494;2022-08-19T00:57:36;99268.91;;;23.17;100.00
56811;BME280;42691;47.234;27.494;2022-08-19T01:00:14;99269.56;;;23.19;100.00
56811;BME280;42691;47.234;27.494;2022-08-19T01:02:42;99265.59;;;23.15;100.00
56811;BME280;42691;47.234;27.494;2022-08-19T01:05:16;99257.97;;;23.20;100.00
56811;BME280;42691;47.234;27.494;2022-08-19T01:07:44;99259.63;;;23.13;100.00
56811;BME280;42691;47.234;27.494;2022-08-19T01:10:13;99254.97;;;23.15;100.00
56811;BME280;42691;47.234;27.494;2022-08-19T01:12:40;99256.25;;;23.02;100.00
56811;BME280;42691;47.234;27.494;2022-08-19T01:15:07;99255.09;;;22.89;100.00
56811;BME280;42691;47.234;27.494;2022-08-19T01:17:35;99267.53;;;22.96;100.00
56811;BME280;42691;47.234;27.494;2022-08-19T01:20:04;99261.28;;;23.05;100.00
56811;BME280;42691;47.234;27.494;2022-08-19T01:25:05;99252.25;;;22.82;100.00
56811;BME280;42691;47.234;27.494;2022-08-19T01:27:43;99263.22;;;22.87;100.00
56811;BME280;42691;47.234;27.494;2022-08-19T01:30:13;99257.56;;;22.82;100.00
56811;BME280;42691;47.234;27.494;2022-08-19T01:32:39;99255.94;;;22.97;100.00
56811;BME280;42691;47.234;27.494;2022-08-19T01:35:05;99260.44;;;23.05;100.00
56811;BME280;42691;47.234;27.494;2022-08-19T01:37:44;99253.28;;;22.97;100.00
56811;BME280;42691;47.234;27.494;2022-08-19T01:40:10;99260.22;;;22.98;100.00
56811;BME280;42691;47.234;27.494;2022-08-19T01:42:36;99263.22;;;23.03;100.00
56811;BME280;42691;47.234;27.494;2022-08-19T01:45:03;99268.53;;;22.95;100.00
56811;BME280;42691;47.234;27.494;2022-08-19T01:47:29;99259.41;;;22.98;100.00
56811;BME280;42691;47.234;27.494;2022-08-19T01:49:54;99262.22;;;22.96;100.00
56811;BME280;42691;47.234;27.494;2022-08-19T01:52:20;99268.16;;;22.82;100.00
56811;BME280;42691;47.234;27.494;2022-08-19T01:54:46;99268.16;;;22.82;100.00
56811;BME280;42691;47.234;27.494;2022-08-19T01:57:12;99263.09;;;22.63;100.00
56811;BME280;42691;47.234;27.494;2022-08-19T01:59:41;99263.16;;;22.79;100.00
56811;BME280;42691;47.234;27.494;2022-08-19T02:02:08;99258.84;;;22.78;100.00
56811;BME280;42691;47.234;27.494;2022-08-19T02:04:33;99256.53;;;22.75;100.00
56811;BME280;42691;47.234;27.494;2022-08-19T02:07:00;99249.34;;;22.59;100.00
56811;BME280;42691;47.234;27.494;2022-08-19T02:09:25;99248.28;;;22.44;100.00
56811;BME280;42691;47.234;27.494;2022-08-19T02:11:51;99249.47;;;22.50;100.00
56811;BME280;42691;47.234;27.494;2022-08-19T02:14:16;99248.47;;;22.51;100.00
56811;BME280;42691;47.234;27.494;2022-08-19T02:16:42;99245.03;;;22.58;100.00
56811;BME280;42691;47.234;27.494;2022-08-19T02:19:07;99246.50;;;22.53;100.00
56811;BME280;42691;47.234;27.494;2022-08-19T02:21:33;99255.44;;;22.52;100.00
56811;BME280;42691;47.234;27.494;2022-08-19T02:23:59;99250.94;;;22.44;100.00
56811;BME280;42691;47.234;27.494;2022-08-19T02:26:25;99259.38;;;22.39;100.00
56811;BME280;42691;47.234;27.494;2022-08-19T02:28:54;99262.91;;;22.22;100.00
56811;BME280;42691;47.234;27.494;2022-08-19T02:31:22;99270.97;;;22.38;100.00
56811;BME280;42691;47.234;27.494;2022-08-19T02:33:48;99269.00;;;22.40;100.00
56811;BME280;42691;47.234;27.494;2022-08-19T02:36:15;99270.16;;;22.46;100.00
56811;BME280;42691;47.234;27.494;2022-08-19T02:38:42;99270.66;;;22.41;100.00
56811;BME280;42691;47.234;27.494;2022-08-19T02:41:12;99277.94;;;22.39;100.00
56811;BME280;42691;47.234;27.494;2022-08-19T02:43:38;99270.34;;;22.19;100.00
56811;BME280;42691;47.234;27.494;2022-08-19T02:46:24;99283.47;;;22.28;100.00
56811;BME280;42691;47.234;27.494;2022-08-19T02:48:54;99280.47;;;22.23;100.00
56811;BME280;42691;47.234;27.494;2022-08-19T02:51:30;99287.75;;;22.21;100.00
56811;BME280;42691;47.234;27.494;2022-08-19T02:53:57;99270.34;;;21.93;100.00
56811;BME280;42691;47.234;27.494;2022-08-19T02:56:23;99284.59;;;22.18;100.00
56811;BME280;42691;47.234;27.494;2022-08-19T02:58:53;99278.91;;;22.04;100.00
56811;BME280;42691;47.234;27.494;2022-08-19T03:01:24;99286.41;;;22.17;100.00
56811;BME280;42691;47.234;27.494;2022-08-19T03:03:50;99283.75;;;22.17;100.00
56811;BME280;42691;47.234;27.494;2022-08-19T03:06:16;99278.78;;;22.14;100.00
56811;BME280;42691;47.234;27.494;2022-08-19T03:08:44;99269.97;;;22.05;100.00
56811;BME280;42691;47.234;27.494;2022-08-19T03:11:19;99283.09;;;22.15;100.00
56811;BME280;42691;47.234;27.494;2022-08-19T03:13:45;99275.66;;;22.19;100.00
56811;BME280;42691;47.234;27.494;2022-08-19T03:16:12;99283.25;;;22.13;100.00
56811;BME280;42691;47.234;27.494;2022-08-19T03:18:38;99290.31;;;22.05;100.00
56811;BME280;42691;47.234;27.494;2022-08-19T03:21:04;99265.50;;;22.06;100.00
56811;BME280;42691;47.234;27.494;2022-08-19T03:23:30;99283.38;;;22.04;100.00
56811;BME280;42691;47.234;27.494;2022-08-19T03:25:55;99285.31;;;22.02;100.00
56811;BME280;42691;47.234;27.494;2022-08-19T03:28:21;99281.47;;;21.96;100.00
56811;BME280;42691;47.234;27.494;2022-08-19T03:30:57;99299.53;;;22.01;100.00
56811;BME280;42691;47.234;27.494;2022-08-19T03:33:24;99314.69;;;21.91;100.00
56811;BME280;42691;47.234;27.494;2022-08-19T03:36:23;99323.28;;;21.93;100.00
56811;BME280;42691;47.234;27.494;2022-08-19T03:38:53;99322.38;;;22.02;100.00
56811;BME280;42691;47.234;27.494;2022-08-19T03:41:31;99328.44;;;22.12;100.00
56811;BME280;42691;47.234;27.494;2022-08-19T03:43:57;99338.41;;;22.18;100.00
56811;BME280;42691;47.234;27.494;2022-08-19T03:46:28;99343.50;;;22.11;100.00
56811;BME280;42691;47.234;27.494;2022-08-19T03:48:55;99345.00;;;22.14;100.00
56811;BME280;42691;47.234;27.494;2022-08-19T03:51:33;99351.28;;;22.13;100.00
56811;BME280;42691;47.234;27.494;2022-08-19T03:54:02;99342.00;;;22.09;100.00
56811;BME280;42691;47.234;27.494;2022-08-19T03:56:28;99346.81;;;22.13;100.00
56811;BME280;42691;47.234;27.494;2022-08-19T03:58:58;99350.94;;;22.08;100.00
56811;BME280;42691;47.234;27.494;2022-08-19T04:01:26;99352.66;;;22.17;100.00
56811;BME280;42691;47.234;27.494;2022-08-19T04:03:52;99351.97;;;22.15;100.00
56811;BME280;42691;47.234;27.494;2022-08-19T04:06:23;99368.25;;;22.46;100.00
56811;BME280;42691;47.234;27.494;2022-08-19T04:08:51;99366.81;;;22.60;100.00
56811;BME280;42691;47.234;27.494;2022-08-19T04:11:19;99368.56;;;22.77;100.00
56811;BME280;42691;47.234;27.494;2022-08-19T04:13:49;99373.97;;;23.01;100.00
56811;BME280;42691;47.234;27.494;2022-08-19T04:16:16;99369.75;;;23.17;100.00
56811;BME280;42691;47.234;27.494;2022-08-19T04:18:42;99368.81;;;23.42;100.00
56811;BME280;42691;47.234;27.494;2022-08-19T04:21:08;99368.19;;;23.64;100.00
56811;BME280;42691;47.234;27.494;2022-08-19T04:23:40;99376.16;;;23.64;100.00
56811;BME280;42691;47.234;27.494;2022-08-19T04:26:05;99374.53;;;23.80;100.00
56811;BME280;42691;47.234;27.494;2022-08-19T04:28:31;99377.00;;;23.97;100.00
56811;BME280;42691;47.234;27.494;2022-08-19T04:30:56;99377.50;;;24.17;100.00
56811;BME280;42691;47.234;27.494;2022-08-19T04:33:24;99376.59;;;24.66;100.00
56811;BME280;42691;47.234;27.494;2022-08-19T04:35:52;99377.34;;;24.99;100.00
56811;BME280;42691;47.234;27.494;2022-08-19T04:38:20;99365.16;;;25.04;100.00
56811;BME280;42691;47.234;27.494;2022-08-19T04:40:49;99363.41;;;25.19;100.00
56811;BME280;42691;47.234;27.494;2022-08-19T04:43:36;99352.16;;;25.40;100.00
56811;BME280;42691;47.234;27.494;2022-08-19T04:46:09;99352.59;;;25.75;100.00
56811;BME280;42691;47.234;27.494;2022-08-19T04:48:36;99348.91;;;25.76;100.00
56811;BME280;42691;47.234;27.494;2022-08-19T04:51:06;99355.75;;;25.93;100.00
56811;BME280;42691;47.234;27.494;2022-08-19T04:53:34;99360.19;;;26.38;100.00
56811;BME280;42691;47.234;27.494;2022-08-19T04:56:05;99357.91;;;26.50;100.00
56811;BME280;42691;47.234;27.494;2022-08-19T04:58:32;99353.84;;;26.54;100.00
56811;BME280;42691;47.234;27.494;2022-08-19T05:00:58;99353.84;;;26.84;100.00
56811;BME280;42691;47.234;27.494;2022-08-19T05:03:25;99343.06;;;26.92;100.00
56811;BME280;42691;47.234;27.494;2022-08-19T05:05:52;99339.28;;;27.37;100.00
56811;BME280;42691;47.234;27.494;2022-08-19T05:08:20;99330.63;;;27.35;100.00
56811;BME280;42691;47.234;27.494;2022-08-19T05:10:50;99337.19;;;27.32;100.00
56811;BME280;42691;47.234;27.494;2022-08-19T05:13:18;99330.47;;;27.58;100.00
56811;BME280;42691;47.234;27.494;2022-08-19T05:15:52;99337.34;;;27.67;100.00
56811;BME280;42691;47.234;27.494;2022-08-19T05:18:18;99336.78;;;27.71;100.00
56811;BME280;42691;47.234;27.494;2022-08-19T05:21:09;99350.63;;;27.82;100.00
56811;BME280;42691;47.234;27.494;2022-08-19T05:23:55;99346.09;;;28.03;100.00
56811;BME280;42691;47.234;27.494;2022-08-19T05:26:21;99357.72;;;28.45;100.00
56811;BME280;42691;47.234;27.494;2022-08-19T05:28:47;99355.94;;;28.24;100.00
56811;BME280;42691;47.234;27.494;2022-08-19T05:31:13;99358.34;;;28.47;100.00
56811;BME280;42691;47.234;27.494;2022-08-19T05:33:38;99357.47;;;28.68;100.00
56811;BME280;42691;47.234;27.494;2022-08-19T05:36:05;99360.97;;;28.69;100.00
56811;BME280;42691;47.234;27.494;2022-08-19T05:38:33;99357.78;;;28.24;100.00
56811;BME280;42691;47.234;27.494;2022-08-19T05:41:10;99357.97;;;28.50;100.00
56811;BME280;42691;47.234;27.494;2022-08-19T05:43:36;99356.53;;;28.89;100.00
56811;BME280;42691;47.234;27.494;2022-08-19T05:46:06;99353.78;;;28.41;100.00
56811;BME280;42691;47.234;27.494;2022-08-19T05:48:33;99356.41;;;28.62;100.00
56811;BME280;42691;47.234;27.494;2022-08-19T05:51:05;99358.59;;;28.87;100.00
56811;BME280;42691;47.234;27.494;2022-08-19T05:53:34;99351.06;;;28.69;100.00
56811;BME280;42691;47.234;27.494;2022-08-19T05:56:12;99364.72;;;28.46;100.00
56811;BME280;42691;47.234;27.494;2022-08-19T05:58:39;99355.13;;;28.58;100.00
56811;BME280;42691;47.234;27.494;2022-08-19T06:01:10;99365.59;;;28.53;100.00
56811;BME280;42691;47.234;27.494;2022-08-19T06:03:36;99361.16;;;29.08;100.00
56811;BME280;42691;47.234;27.494;2022-08-19T06:06:03;99364.00;;;29.48;100.00
56811;BME280;42691;47.234;27.494;2022-08-19T06:08:29;99354.19;;;29.14;100.00
56811;BME280;42691;47.234;27.494;2022-08-19T06:10:55;99355.94;;;29.48;100.00
56811;BME280;42691;47.234;27.494;2022-08-19T06:13:21;99352.19;;;29.42;100.00
56811;BME280;42691;47.234;27.494;2022-08-19T06:15:48;99348.22;;;29.18;100.00
56811;BME280;42691;47.234;27.494;2022-08-19T06:18:15;99348.84;;;29.20;100.00
56811;BME280;42691;47.234;27.494;2022-08-19T06:20:41;99346.69;;;29.64;100.00
56811;BME280;42691;47.234;27.494;2022-08-19T06:23:09;99352.16;;;29.36;100.00
56811;BME280;42691;47.234;27.494;2022-08-19T06:25:35;99340.78;;;29.20;100.00
56811;BME280;42691;47.234;27.494;2022-08-19T06:28:01;99361.09;;;29.56;100.00
56811;BME280;42691;47.234;27.494;2022-08-19T06:30:27;99355.38;;;29.85;100.00
56811;BME280;42691;47.234;27.494;2022-08-19T06:32:53;99351.03;;;29.91;100.00
56811;BME280;42691;47.234;27.494;2022-08-19T06:35:19;99349.78;;;29.94;100.00
56811;BME280;42691;47.234;27.494;2022-08-19T06:37:44;99355.56;;;30.30;100.00
56811;BME280;42691;47.234;27.494;2022-08-19T06:40:11;99351.06;;;30.11;100.00
56811;BME280;42691;47.234;27.494;2022-08-19T06:42:38;99352.72;;;30.12;100.00
56811;BME280;42691;47.234;27.494;2022-08-19T06:45:05;99360.28;;;30.41;100.00
56811;BME280;42691;47.234;27.494;2022-08-19T06:47:33;99362.19;;;30.21;100.00
56811;BME280;42691;47.234;27.494;2022-08-19T06:49:59;99358.88;;;30.32;100.00
56811;BME280;42691;47.234;27.494;2022-08-19T06:52:30;99365.47;;;30.49;100.00
56811;BME280;42691;47.234;27.494;2022-08-19T06:54:56;99366.13;;;30.25;100.00
56811;BME280;42691;47.234;27.494;2022-08-19T06:57:22;99364.84;;;30.61;100.00
56811;BME280;42691;47.234;27.494;2022-08-19T06:59:48;99358.25;;;30.37;100.00
56811;BME280;42691;47.234;27.494;2022-08-19T07:02:13;99350.78;;;30.59;100.00
56811;BME280;42691;47.234;27.494;2022-08-19T07:04:39;99354.09;;;30.47;100.00
56811;BME280;42691;47.234;27.494;2022-08-19T07:07:10;99361.31;;;30.47;100.00
56811;BME280;42691;47.234;27.494;2022-08-19T07:09:39;99362.56;;;30.51;100.00
56811;BME280;42691;47.234;27.494;2022-08-19T07:12:06;99365.03;;;30.53;100.00
56811;BME280;42691;47.234;27.494;2022-08-19T07:14:33;99360.09;;;30.43;100.00
56811;BME280;42691;47.234;27.494;2022-08-19T07:17:02;99363.75;;;30.75;100.00
56811;BME280;42691;47.234;27.494;2022-08-19T07:19:28;99366.84;;;30.85;100.00
56811;BME280;42691;47.234;27.494;2022-08-19T07:21:54;99358.22;;;30.50;100.00
56811;BME280;42691;47.234;27.494;2022-08-19T07:24:22;99362.97;;;30.55;100.00
56811;BME280;42691;47.234;27.494;2022-08-19T07:26:53;99372.84;;;30.74;100.00
56811;BME280;42691;47.234;27.494;2022-08-19T07:29:20;99372.41;;;30.84;100.00
56811;BME280;42691;47.234;27.494;2022-08-19T07:31:51;99369.16;;;30.68;100.00
56811;BME280;42691;47.234;27.494;2022-08-19T07:34:17;99365.88;;;30.60;100.00
56811;BME280;42691;47.234;27.494;2022-08-19T07:36:43;99370.22;;;30.61;100.00
56811;BME280;42691;47.234;27.494;2022-08-19T07:39:12;99368.31;;;30.68;100.00
56811;BME280;42691;47.234;27.494;2022-08-19T07:41:38;99366.28;;;30.50;100.00
56811;BME280;42691;47.234;27.494;2022-08-19T07:44:05;99373.28;;;30.71;100.00
56811;BME280;42691;47.234;27.494;2022-08-19T07:46:37;99366.75;;;30.21;100.00
56811;BME280;42691;47.234;27.494;2022-08-19T07:49:04;99364.25;;;30.32;100.00
56811;BME280;42691;47.234;27.494;2022-08-19T07:51:30;99363.38;;;30.45;100.00
56811;BME280;42691;47.234;27.494;2022-08-19T07:53:56;99362.16;;;30.34;100.00
56811;BME280;42691;47.234;27.494;2022-08-19T07:56:22;99367.09;;;30.44;100.00
56811;BME280;42691;47.234;27.494;2022-08-19T07:58:52;99368.78;;;29.99;100.00
56811;BME280;42691;47.234;27.494;2022-08-19T08:01:24;99361.81;;;30.11;100.00
56811;BME280;42691;47.234;27.494;2022-08-19T08:03:52;99358.84;;;30.45;100.00
56811;BME280;42691;47.234;27.494;2022-08-19T08:06:37;99366.72;;;30.34;100.00
56811;BME280;42691;47.234;27.494;2022-08-19T08:09:31;99359.28;;;30.29;100.00
56811;BME280;42691;47.234;27.494;2022-08-19T08:12:04;99369.00;;;30.17;100.00
56811;BME280;42691;47.234;27.494;2022-08-19T08:17:09;99364.25;;;30.06;100.00
56811;BME280;42691;47.234;27.494;2022-08-19T08:19:35;99359.94;;;30.05;100.00
56811;BME280;42691;47.234;27.494;2022-08-19T08:22:01;99369.63;;;30.06;100.00
56811;BME280;42691;47.234;27.494;2022-08-19T08:24:29;99362.63;;;30.11;100.00
56811;BME280;42691;47.234;27.494;2022-08-19T08:26:56;99368.59;;;30.27;100.00
56811;BME280;42691;47.234;27.494;2022-08-19T08:29:22;99365.47;;;30.30;100.00
56811;BME280;42691;47.234;27.494;2022-08-19T08:31:48;99363.41;;;29.99;100.00
56811;BME280;42691;47.234;27.494;2022-08-19T08:34:14;99349.81;;;29.87;100.00
56811;BME280;42691;47.234;27.494;2022-08-19T08:36:42;99354.75;;;30.10;100.00
56811;BME280;42691;47.234;27.494;2022-08-19T08:39:14;99343.41;;;29.88;100.00
56811;BME280;42691;47.234;27.494;2022-08-19T08:41:50;99349.63;;;30.15;100.00
56811;BME280;42691;47.234;27.494;2022-08-19T08:44:21;99341.97;;;30.18;100.00
56811;BME280;42691;47.234;27.494;2022-08-19T08:46:55;99333.69;;;30.00;100.00
56811;BME280;42691;47.234;27.494;2022-08-19T08:49:31;99335.94;;;30.49;100.00
56811;BME280;42691;47.234;27.494;2022-08-19T08:54:40;99330.19;;;29.86;100.00
56811;BME280;42691;47.234;27.494;2022-08-19T08:57:15;99330.81;;;29.88;100.00
56811;BME280;42691;47.234;27.494;2022-08-19T08:59:45;99332.88;;;29.60;100.00
56811;BME280;42691;47.234;27.494;2022-08-19T09:02:19;99331.22;;;29.66;100.00
56811;BME280;42691;47.234;27.494;2022-08-19T09:04:45;99335.16;;;30.03;100.00
56811;BME280;42691;47.234;27.494;2022-08-19T09:09:50;99338.28;;;30.13;100.00
56811;BME280;42691;47.234;27.494;2022-08-19T09:15:02;99334.97;;;30.11;100.00
56811;BME280;42691;47.234;27.494;2022-08-19T09:17:31;99321.53;;;29.84;100.00
56811;BME280;42691;47.234;27.494;2022-08-19T09:20:08;99334.50;;;30.01;100.00
56811;BME280;42691;47.234;27.494;2022-08-19T09:22:40;99332.06;;;29.93;100.00
56811;BME280;42691;47.234;27.494;2022-08-19T09:25:11;99340.75;;;30.14;100.00
56811;BME280;42691;47.234;27.494;2022-08-19T09:27:38;99329.59;;;30.24;100.00
56811;BME280;42691;47.234;27.494;2022-08-19T09:30:06;99340.72;;;30.21;100.00
56811;BME280;42691;47.234;27.494;2022-08-19T09:32:34;99333.91;;;29.99;100.00
56811;BME280;42691;47.234;27.494;2022-08-19T09:34:59;99336.00;;;30.03;100.00
56811;BME280;42691;47.234;27.494;2022-08-19T09:37:26;99333.72;;;30.07;100.00
56811;BME280;42691;47.234;27.494;2022-08-19T09:39:52;99319.06;;;29.76;100.00
56811;BME280;42691;47.234;27.494;2022-08-19T09:42:18;99331.44;;;30.24;100.00
56811;BME280;42691;47.234;27.494;2022-08-19T09:44:44;99328.34;;;30.20;100.00
56811;BME280;42691;47.234;27.494;2022-08-19T09:47:11;99333.72;;;30.13;100.00
56811;BME280;42691;47.234;27.494;2022-08-19T09:49:37;99320.94;;;30.02;100.00
56811;BME280;42691;47.234;27.494;2022-08-19T09:52:05;99331.66;;;29.89;100.00
56811;BME280;42691;47.234;27.494;2022-08-19T09:54:33;99338.25;;;30.06;100.00
56811;BME280;42691;47.234;27.494;2022-08-19T09:56:59;99330.63;;;29.77;100.00
56811;BME280;42691;47.234;27.494;2022-08-19T09:59:28;99338.03;;;30.08;100.00
56811;BME280;42691;47.234;27.494;2022-08-19T10:01:54;99335.16;;;29.90;100.00
56811;BME280;42691;47.234;27.494;2022-08-19T10:04:20;99341.94;;;29.99;100.00
56811;BME280;42691;47.234;27.494;2022-08-19T10:06:47;99319.06;;;29.76;100.00
56811;BME280;42691;47.234;27.494;2022-08-19T10:09:15;99333.47;;;30.02;100.00
56811;BME280;42691;47.234;27.494;2022-08-19T10:11:42;99341.13;;;29.92;100.00
56811;BME280;42691;47.234;27.494;2022-08-19T10:14:08;99334.94;;;29.91;100.00
56811;BME280;42691;47.234;27.494;2022-08-19T10:16:36;99331.84;;;30.01;100.00
56811;BME280;42691;47.234;27.494;2022-08-19T10:19:03;99336.59;;;29.85;100.00
56811;BME280;42691;47.234;27.494;2022-08-19T10:21:31;99337.84;;;29.83;100.00
56811;BME280;42691;47.234;27.494;2022-08-19T10:23:59;99340.69;;;29.68;100.00
56811;BME280;42691;47.234;27.494;2022-08-19T10:26:27;99338.44;;;29.98;100.00
56811;BME280;42691;47.234;27.494;2022-08-19T10:28:53;99329.16;;;29.87;100.00
56811;BME280;42691;47.234;27.494;2022-08-19T10:31:22;99339.47;;;29.91;100.00
56811;BME280;42691;47.234;27.494;2022-08-19T10:33:49;99322.97;;;29.94;100.00
56811;BME280;42691;47.234;27.494;2022-08-19T10:36:19;99336.38;;;29.94;100.00
56811;BME280;42691;47.234;27.494;2022-08-19T10:38:48;99325.06;;;30.18;100.00
56811;BME280;42691;47.234;27.494;2022-08-19T10:41:16;99324.22;;;29.98;100.00
56811;BME280;42691;47.234;27.494;2022-08-19T10:43:43;99322.97;;;30.07;100.00
56811;BME280;42691;47.234;27.494;2022-08-19T10:46:12;99329.78;;;30.29;100.00
56811;BME280;42691;47.234;27.494;2022-08-19T10:48:38;99320.50;;;30.25;100.00
56811;BME280;42691;47.234;27.494;2022-08-19T10:51:05;99327.50;;;30.33;100.00
56811;BME280;42691;47.234;27.494;2022-08-19T10:53:50;99322.38;;;30.18;100.00
56811;BME280;42691;47.234;27.494;2022-08-19T10:56:16;99319.88;;;30.23;100.00
56811;BME280;42691;47.234;27.494;2022-08-19T10:59:00;99314.09;;;30.00;100.00
56811;BME280;42691;47.234;27.494;2022-08-19T11:01:29;99310.19;;;29.96;100.00
56811;BME280;42691;47.234;27.494;2022-08-19T11:03:56;99308.94;;;29.92;100.00
56811;BME280;42691;47.234;27.494;2022-08-19T11:06:23;99321.34;;;29.86;100.00
56811;BME280;42691;47.234;27.494;2022-08-19T11:08:51;99314.75;;;29.75;100.00
56811;BME280;42691;47.234;27.494;2022-08-19T11:11:16;99295.34;;;29.93;100.00
56811;BME280;42691;47.234;27.494;2022-08-19T11:13:43;99317.38;;;30.02;100.00
56811;BME280;42691;47.234;27.494;2022-08-19T11:18:36;99311.44;;;30.13;100.00
56811;BME280;42691;47.234;27.494;2022-08-19T11:21:17;99309.78;;;30.05;100.00
56811;BME280;42691;47.234;27.494;2022-08-19T11:23:44;99310.19;;;30.22;100.00
56811;BME280;42691;47.234;27.494;2022-08-19T11:26:10;99306.47;;;30.23;100.00
56811;BME280;42691;47.234;27.494;2022-08-19T11:28:37;99303.16;;;30.21;100.00
56811;BME280;42691;47.234;27.494;2022-08-19T11:31:04;99308.13;;;30.24;100.00
56811;BME280;42691;47.234;27.494;2022-08-19T11:33:32;99292.44;;;30.21;100.00
56811;BME280;42691;47.234;27.494;2022-08-19T11:35:58;99293.88;;;30.24;100.00
56811;BME280;42691;47.234;27.494;2022-08-19T11:38:26;99297.38;;;29.98;100.00
56811;BME280;42691;47.234;27.494;2022-08-19T11:40:56;99297.63;;;30.16;100.00
56811;BME280;42691;47.234;27.494;2022-08-19T11:43:22;99281.31;;;29.91;100.00
56811;BME280;42691;47.234;27.494;2022-08-19T11:45:47;99285.63;;;30.05;100.00
56811;BME280;42691;47.234;27.494;2022-08-19T11:48:14;99294.69;;;30.31;100.00
56811;BME280;42691;47.234;27.494;2022-08-19T11:50:39;99296.59;;;30.17;100.00
56811;BME280;42691;47.234;27.494;2022-08-19T11:53:07;99278.22;;;29.94;100.00
56811;BME280;42691;47.234;27.494;2022-08-19T11:55:37;99293.25;;;30.28;100.00
56811;BME280;42691;47.234;27.494;2022-08-19T11:58:04;99283.56;;;30.01;100.00
56811;BME280;42691;47.234;27.494;2022-08-19T12:00:32;99289.56;;;30.16;100.00
56811;BME280;42691;47.234;27.494;2022-08-19T12:02:59;99274.25;;;30.30;100.00
56811;BME280;42691;47.234;27.494;2022-08-19T12:05:24;99278.00;;;29.96;100.00
56811;BME280;42691;47.234;27.494;2022-08-19T12:07:50;99273.47;;;30.16;100.00
56811;BME280;42691;47.234;27.494;2022-08-19T12:10:15;99282.50;;;30.28;100.00
56811;BME280;42691;47.234;27.494;2022-08-19T12:12:41;99268.09;;;30.16;100.00
56811;BME280;42691;47.234;27.494;2022-08-19T12:15:08;99268.53;;;30.13;100.00
56811;BME280;42691;47.234;27.494;2022-08-19T12:17:36;99269.75;;;30.10;100.00
56811;BME280;42691;47.234;27.494;2022-08-19T12:20:03;99272.19;;;30.25;100.00
56811;BME280;42691;47.234;27.494;2022-08-19T12:22:28;99263.53;;;30.23;100.00
56811;BME280;42691;47.234;27.494;2022-08-19T12:24:54;99267.25;;;30.22;100.00
56811;BME280;42691;47.234;27.494;2022-08-19T12:27:20;99261.09;;;30.15;100.00
56811;BME280;42691;47.234;27.494;2022-08-19T12:29:45;99251.59;;;30.19;100.00
56811;BME280;42691;47.234;27.494;2022-08-19T12:32:11;99253.22;;;30.20;100.00
56811;BME280;42691;47.234;27.494;2022-08-19T12:34:36;99249.28;;;30.29;100.00
56811;BME280;42691;47.234;27.494;2022-08-19T12:37:04;99247.44;;;30.23;100.00
56811;BME280;42691;47.234;27.494;2022-08-19T12:39:33;99242.06;;;30.30;100.00
56811;BME280;42691;47.234;27.494;2022-08-19T12:41:58;99246.81;;;30.28;100.00
56811;BME280;42691;47.234;27.494;2022-08-19T12:44:24;99244.25;;;30.46;100.00
56811;BME280;42691;47.234;27.494;2022-08-19T12:46:49;99251.72;;;30.37;100.00
56811;BME280;42691;47.234;27.494;2022-08-19T12:49:15;99250.25;;;30.48;100.00
56811;BME280;42691;47.234;27.494;2022-08-19T12:51:41;99259.34;;;30.40;100.00
56811;BME280;42691;47.234;27.494;2022-08-19T12:54:06;99252.09;;;30.47;100.00
56811;BME280;42691;47.234;27.494;2022-08-19T12:56:32;99251.06;;;30.48;100.00
56811;BME280;42691;47.234;27.494;2022-08-19T12:59:01;99238.47;;;30.42;100.00
56811;BME280;42691;47.234;27.494;2022-08-19T13:01:28;99248.47;;;30.22;100.00